Time;durP1;ratioP1;P1;durP2;ratioP2;P2;SDS_P1;SDS_P2;PMS_P1;PMS_P2;Temp;Humidity;BMP_temperature;BMP_pressure;BME280_temperature;BME280_humidity;BME280_pressure;Samples;Min_cycle;Max_cycle;Signal;HPM_P1;HPM_P2
2022/08/04 00:02:54;;;;;;;2.57;2.00;;;;;;;15.63;71.00;97800.06;7611828;23;20660;-68
2022/08/04 00:06:07;;;;;;;2.50;2.30;;;;;;;15.59;70.80;97801.34;7616463;23;20232;-67
2022/08/04 00:09:16;;;;;;;2.17;1.97;;;;;;;15.57;71.04;97814.00;7615989;23;20200;-67
2022/08/04 00:12:24;;;;;;;2.40;2.10;;;;;;;15.56;71.40;97801.69;7615756;23;20251;-68
2022/08/04 00:15:33;;;;;;;4.33;2.00;;;;;;;15.55;71.04;97800.00;7614474;23;20215;-67
2022/08/04 00:18:49;;;;;;;3.33;2.50;;;;;;;15.48;70.87;97808.53;7617590;23;20526;-67
2022/08/04 00:21:58;;;;;;;2.20;2.00;;;;;;;15.47;71.13;97798.88;7615697;23;20209;-67
2022/08/04 00:25:04;;;;;;;3.30;2.03;;;;;;;15.46;71.40;97794.56;7615764;23;20238;-68
2022/08/04 00:28:06;;;;;;;4.03;3.03;;;;;;;15.47;71.29;97801.53;7616300;23;20212;-67
2022/08/04 00:31:10;;;;;;;3.70;2.77;;;;;;;15.45;71.22;97798.22;7615864;23;20633;-68
2022/08/04 00:34:13;;;;;;;2.50;2.30;;;;;;;15.43;71.34;97808.16;7614925;23;20208;-68
2022/08/04 00:37:19;;;;;;;2.43;2.13;;;;;;;15.45;71.43;97800.88;7615722;23;20216;-68
2022/08/04 00:41:06;;;;;;;1.80;1.70;;;;;;;15.43;71.60;97799.34;7615084;23;20219;-68
2022/08/04 00:44:46;;;;;;;2.90;2.00;;;;;;;15.35;71.70;97797.44;7503904;23;20579;-68
2022/08/04 00:48:12;;;;;;;1.87;1.77;;;;;;;15.32;71.83;97799.56;7504317;23;20549;-68
2022/08/04 00:51:29;;;;;;;4.20;2.17;;;;;;;15.26;71.65;97801.00;7478054;23;20225;-67
2022/08/04 00:55:04;;;;;;;2.37;2.07;;;;;;;15.22;71.83;97796.97;7503505;23;20218;-68
2022/08/04 00:58:19;;;;;;;2.10;2.00;;;;;;;15.19;72.07;97788.44;7503615;23;20214;-68
2022/08/04 01:06:23;;;;;;;1.83;1.73;;;;;;;15.05;72.46;97801.25;7502806;23;20203;-67
2022/08/04 01:09:44;;;;;;;2.40;1.97;;;;;;;15.03;72.65;97799.72;7503356;23;20571;-67
2022/08/04 01:12:57;;;;;;;3.13;1.87;;;;;;;15.00;72.89;97805.34;7503814;23;20219;-67
2022/08/04 01:16:04;;;;;;;3.33;2.20;;;;;;;15.04;73.00;97804.06;7611657;23;20224;-68
2022/08/04 01:19:44;;;;;;;2.20;2.00;;;;;;;15.02;72.88;97792.75;7614607;23;20579;-67
2022/08/04 01:23:16;;;;;;;2.20;2.10;;;;;;;15.00;72.95;97802.69;7590027;23;20549;-67
2022/08/04 01:27:01;;;;;;;1.80;1.60;;;;;;;14.95;73.01;97795.16;7615085;23;20271;-68
2022/08/04 01:30:05;;;;;;;2.40;2.20;;;;;;;14.89;73.36;97801.03;7555976;23;20201;-68
2022/08/04 01:33:13;;;;;;;2.83;2.60;;;;;;;14.86;73.08;97805.84;7615721;23;20314;-67
2022/08/04 01:36:19;;;;;;;4.23;3.93;;;;;;;14.84;73.49;97798.00;7617038;23;20199;-68
2022/08/04 01:39:39;;;;;;;2.37;2.17;;;;;;;14.80;73.13;97793.13;7615538;23;20223;-67
2022/08/04 01:42:44;;;;;;;2.93;2.63;;;;;;;14.77;73.31;97795.06;7614855;23;20672;-67
2022/08/04 01:45:55;;;;;;;6.17;4.90;;;;;;;14.78;73.49;97793.25;7614621;23;20300;-67
2022/08/04 01:49:00;;;;;;;5.13;3.37;;;;;;;14.78;73.43;97795.91;7616123;23;20563;-68
2022/08/04 01:52:04;;;;;;;3.50;2.93;;;;;;;14.76;73.88;97790.78;7614486;23;20299;-67
2022/08/04 01:55:09;;;;;;;4.27;3.20;;;;;;;14.73;74.15;97796.38;7614913;23;20212;-67
2022/08/04 01:58:13;;;;;;;5.97;4.37;;;;;;;14.65;74.05;97792.78;7614849;23;20219;-67
2022/08/04 02:01:16;;;;;;;4.43;3.10;;;;;;;14.60;74.22;97795.84;7614345;23;20308;-67
2022/08/04 02:04:19;;;;;;;5.50;3.50;;;;;;;14.55;74.08;97790.16;7614891;23;20212;-68
2022/08/04 02:07:39;;;;;;;4.60;2.77;;;;;;;14.57;74.45;97795.34;7615014;23;20213;-67
2022/08/04 02:10:41;;;;;;;2.73;2.40;;;;;;;14.53;74.38;97789.47;7614175;23;20267;-67
2022/08/04 02:13:53;;;;;;;3.60;3.30;;;;;;;14.51;74.73;97785.28;7614097;23;20306;-67
2022/08/04 02:16:57;;;;;;;3.90;3.57;;;;;;;14.51;74.84;97783.44;7616490;23;20219;-67
2022/08/04 02:20:08;;;;;;;4.57;4.13;;;;;;;14.51;75.08;97788.75;7617990;23;20240;-67
2022/08/04 02:23:16;;;;;;;4.20;3.13;;;;;;;14.51;75.12;97787.91;7617439;23;20267;-67
2022/08/04 02:26:25;;;;;;;2.90;2.63;;;;;;;14.47;74.92;97783.91;7616771;23;20208;-68
2022/08/04 02:29:38;;;;;;;2.70;2.50;;;;;;;14.45;75.26;97784.03;7617346;23;20209;-67
2022/08/04 02:32:43;;;;;;;5.63;3.73;;;;;;;14.38;75.48;97778.41;7617586;23;20216;-67
2022/08/04 02:35:52;;;;;;;4.80;3.60;;;;;;;14.33;75.52;97782.50;7620172;23;20524;-67
2022/08/04 02:39:00;;;;;;;3.97;2.77;;;;;;;14.32;76.15;97776.34;7617880;23;20677;-68
2022/08/04 02:42:04;;;;;;;2.07;1.97;;;;;;;14.32;75.82;97775.50;7616444;23;20263;-67
2022/08/04 02:45:07;;;;;;;2.47;2.07;;;;;;;14.29;76.10;97775.78;7616587;23;20176;-67
2022/08/04 02:48:12;;;;;;;2.80;2.50;;;;;;;14.26;76.04;97765.47;7617774;23;20177;-67
2022/08/04 02:51:44;;;;;;;4.33;2.40;;;;;;;14.33;75.98;97766.56;7616796;23;20213;-67
2022/08/04 02:54:50;;;;;;;2.13;2.03;;;;;;;14.32;76.64;97770.22;7616486;23;20209;-68
2022/08/04 02:57:54;;;;;;;2.60;2.40;;;;;;;14.29;76.36;97768.66;7617120;23;20208;-67
2022/08/04 03:00:56;;;;;;;2.50;2.30;;;;;;;14.27;77.09;97761.84;7590296;23;20230;-68
2022/08/04 03:04:20;;;;;;;2.17;1.97;;;;;;;14.29;77.21;97763.34;7616481;23;20208;-68
2022/08/04 03:07:53;;;;;;;4.97;2.20;;;;;;;14.30;76.87;97758.88;7616991;23;20220;-68
2022/08/04 03:11:15;;;;;;;2.60;2.40;;;;;;;14.22;76.89;97762.28;7617321;23;20520;-67
2022/08/04 03:14:44;;;;;;;2.73;2.53;;;;;;;14.24;77.40;97762.13;7616140;23;20747;-68
2022/08/04 03:18:23;;;;;;;3.90;2.20;;;;;;;14.25;77.29;97764.66;7616579;23;20217;-68
2022/08/04 03:21:58;;;;;;;2.10;2.00;;;;;;;14.24;77.71;97765.63;7616082;23;20272;-68
2022/08/04 03:25:12;;;;;;;2.80;2.60;;;;;;;14.27;77.91;97761.84;7617249;23;20227;-68
2022/08/04 03:28:33;;;;;;;2.70;2.50;;;;;;;14.29;77.97;97760.69;7591450;23;20240;-68
2022/08/04 03:31:57;;;;;;;2.40;2.27;;;;;;;14.31;78.11;97760.56;7615280;23;20227;-68
2022/08/04 03:35:33;;;;;;;2.50;2.30;;;;;;;14.34;78.48;97762.94;7616613;23;20213;-68
2022/08/04 03:38:54;;;;;;;2.77;2.50;;;;;;;14.36;78.22;97764.47;7616059;23;20555;-68
2022/08/04 03:42:30;;;;;;;2.77;2.50;;;;;;;14.42;78.10;97765.72;7591165;23;20259;-68
2022/08/04 03:45:51;;;;;;;2.47;2.20;;;;;;;14.44;78.02;97758.47;7590878;23;20544;-68
2022/08/04 03:49:21;;;;;;;2.53;2.33;;;;;;;14.44;78.67;97760.28;7617520;23;20224;-68
2022/08/04 03:56:38;;;;;;;2.33;2.23;;;;;;;14.34;78.50;97769.09;7616012;23;20731;-68
2022/08/04 04:00:01;;;;;;;2.70;2.50;;;;;;;14.30;78.99;97766.84;7616064;23;20208;-68
2022/08/04 04:03:15;;;;;;;2.50;2.30;;;;;;;14.27;79.45;97765.34;7615855;23;20589;-67
2022/08/04 04:07:17;;;;;;;2.73;2.27;;;;;;;14.29;79.49;97773.13;7616770;23;20684;-68
2022/08/04 04:10:35;;;;;;;2.70;2.50;;;;;;;14.36;79.63;97768.94;7541520;23;20306;-68
2022/08/04 04:13:43;;;;;;;2.90;2.60;;;;;;;14.42;79.44;97763.09;7616077;23;20680;-68
2022/08/04 04:17:04;;;;;;;2.57;2.37;;;;;;;14.40;79.77;97768.53;7614704;23;20209;-68
2022/08/04 04:20:25;;;;;;;4.07;2.33;;;;;;;14.31;80.70;97763.22;7615555;23;20283;-68
2022/08/04 04:23:43;;;;;;;2.63;2.43;;;;;;;14.27;80.78;97768.00;7614941;23;20213;-68
2022/08/04 04:27:27;;;;;;;3.20;2.53;;;;;;;14.29;80.51;97766.00;7615241;23;20284;-67
2022/08/04 04:30:44;;;;;;;2.77;2.57;;;;;;;14.30;81.13;97765.03;7614849;23;20514;-68
2022/08/04 04:33:49;;;;;;;3.40;2.40;;;;;;;14.34;81.23;97777.06;7615153;23;20219;-68
2022/08/04 04:36:59;;;;;;;3.00;2.80;;;;;;;14.41;81.25;97774.69;7616592;23;20680;-68
2022/08/04 04:40:07;;;;;;;4.10;2.90;;;;;;;14.48;81.45;97782.88;7616522;23;20264;-68
2022/08/04 04:43:30;;;;;;;3.93;2.73;;;;;;;14.49;81.93;97776.59;7613348;23;20211;-68
2022/08/04 04:47:14;;;;;;;3.10;2.90;;;;;;;14.51;81.99;97782.63;7613836;23;20462;-68
2022/08/04 04:50:27;;;;;;;5.50;2.80;;;;;;;14.57;81.53;97790.84;7614206;23;20218;-68
2022/08/04 04:53:56;;;;;;;6.07;3.03;;;;;;;14.60;81.32;97784.41;7614884;23;20552;-68
2022/08/04 04:57:19;;;;;;;3.40;2.90;;;;;;;14.67;82.37;97782.84;7617395;23;20609;-68
2022/08/04 05:01:11;;;;;;;3.03;2.83;;;;;;;14.72;82.16;97789.38;7614382;23;20584;-68
2022/08/04 05:04:44;;;;;;;2.93;2.53;;;;;;;14.79;82.11;97784.31;7588806;23;20579;-68
2022/08/04 05:08:23;;;;;;;3.17;2.87;;;;;;;14.90;81.41;97785.94;7615035;23;20212;-68
2022/08/04 05:11:59;;;;;;;3.70;2.90;;;;;;;14.96;81.50;97790.69;7613647;23;20331;-68
2022/08/04 05:15:07;;;;;;;2.70;2.50;;;;;;;15.02;81.35;97790.91;7614616;23;20205;-68
2022/08/04 05:18:13;;;;;;;3.80;2.60;;;;;;;15.11;81.34;97789.19;7588466;23;20177;-68
2022/08/04 05:21:19;;;;;;;2.90;2.70;;;;;;;15.17;81.67;97787.78;7614641;23;20684;-69
2022/08/04 05:24:25;;;;;;;2.70;2.50;;;;;;;15.22;81.75;97791.66;7616346;23;20546;-68
2022/08/04 05:27:37;;;;;;;3.10;2.80;;;;;;;15.26;81.15;97798.34;7614817;23;20262;-68
2022/08/04 05:30:48;;;;;;;2.90;2.70;;;;;;;15.29;81.19;97792.72;7614712;23;20205;-68
2022/08/04 05:33:53;;;;;;;2.77;2.57;;;;;;;15.33;80.77;97785.28;7614610;23;20251;-68
2022/08/04 05:36:59;;;;;;;3.50;3.20;;;;;;;15.39;80.63;97790.81;7614268;23;20217;-68
2022/08/04 05:40:06;;;;;;;2.77;2.57;;;;;;;15.50;80.45;97787.13;7616021;23;20611;-68
2022/08/04 05:43:10;;;;;;;2.77;2.57;;;;;;;15.57;80.08;97792.72;7613198;23;20212;-69
2022/08/04 05:46:14;;;;;;;2.57;2.37;;;;;;;15.68;79.84;97793.28;7589777;23;20209;-69
2022/08/04 05:49:16;;;;;;;3.10;2.50;;;;;;;15.84;79.23;97793.47;7613237;23;20518;-69
2022/08/04 05:52:24;;;;;;;2.67;2.47;;;;;;;15.96;78.98;97799.38;7612686;23;20218;-68
2022/08/04 05:55:29;;;;;;;2.57;2.37;;;;;;;16.02;78.70;97797.94;7614065;23;20224;-69
2022/08/04 05:58:53;;;;;;;2.77;2.57;;;;;;;16.10;78.59;97800.66;7613681;23;20219;-69
2022/08/04 06:01:59;;;;;;;2.70;2.50;;;;;;;16.15;78.56;97798.38;7614277;23;20953;-69
2022/08/04 06:05:02;;;;;;;3.03;2.23;;;;;;;16.21;78.38;97806.56;7614168;23;20629;-69
2022/08/04 06:08:05;;;;;;;2.70;2.50;;;;;;;16.29;78.15;97797.78;7614738;23;20212;-68
2022/08/04 06:11:15;;;;;;;3.00;2.80;;;;;;;16.32;78.36;97808.13;7590978;23;20235;-68
2022/08/04 06:14:22;;;;;;;2.60;2.40;;;;;;;16.37;78.19;97805.03;7611444;23;20212;-68
2022/08/04 06:17:31;;;;;;;2.30;2.17;;;;;;;16.46;78.18;97807.59;7587946;23;20216;-68
2022/08/04 06:20:56;;;;;;;2.60;2.40;;;;;;;16.53;78.00;97813.94;7613155;23;20741;-68
2022/08/04 06:24:01;;;;;;;2.77;2.57;;;;;;;16.66;77.53;97816.22;7613394;23;20406;-69
2022/08/04 06:27:07;;;;;;;2.73;2.53;;;;;;;16.80;77.17;97815.63;7587166;23;20304;-69
2022/08/04 06:30:13;;;;;;;2.63;2.20;;;;;;;17.01;76.36;97815.22;7588370;23;20181;-69
2022/08/04 06:33:32;;;;;;;2.60;2.40;;;;;;;17.16;76.16;97810.97;7563444;23;20283;-68
2022/08/04 06:36:55;;;;;;;2.60;2.40;;;;;;;17.31;76.13;97805.84;7612702;23;20213;-68
2022/08/04 06:39:59;;;;;;;2.60;2.40;;;;;;;17.49;75.39;97814.53;7612249;23;20204;-69
2022/08/04 06:43:05;;;;;;;2.20;2.10;;;;;;;17.70;74.72;97798.94;7594893;23;20228;-68
2022/08/04 06:46:10;;;;;;;2.33;2.13;;;;;;;17.97;73.79;97805.81;7613252;23;20215;-68
2022/08/04 06:49:13;;;;;;;2.43;2.20;;;;;;;18.30;72.62;97803.13;7614188;23;20560;-69
2022/08/04 06:52:17;;;;;;;2.53;2.33;;;;;;;18.67;71.54;97800.75;7614192;23;20212;-68
2022/08/04 06:55:19;;;;;;;3.33;2.30;;;;;;;19.09;69.91;97799.59;7613707;23;20224;-68
2022/08/04 06:58:22;;;;;;;2.67;2.47;;;;;;;19.48;68.80;97795.09;7612862;23;20213;-68
2022/08/04 07:01:26;;;;;;;2.40;2.20;;;;;;;19.96;66.50;97798.47;7613960;23;20212;-69
2022/08/04 07:04:29;;;;;;;3.10;2.80;;;;;;;20.36;64.42;97799.19;7616056;23;20212;-68
2022/08/04 07:07:31;;;;;;;4.53;2.27;;;;;;;20.72;63.18;97797.47;7616354;23;20555;-69
2022/08/04 07:10:38;;;;;;;2.70;2.30;;;;;;;21.19;60.62;97797.09;7615878;23;20304;-68
2022/08/04 07:13:42;;;;;;;2.80;2.50;;;;;;;21.57;58.34;97797.75;7616012;23;20248;-68
2022/08/04 07:16:48;;;;;;;2.73;2.50;;;;;;;22.24;54.39;97794.75;7589775;23;20275;-68
2022/08/04 07:19:51;;;;;;;2.30;2.10;;;;;;;22.65;54.08;97789.50;7615629;23;20213;-68
2022/08/04 07:22:55;;;;;;;2.40;2.20;;;;;;;22.97;52.92;97793.41;7616033;23;20216;-68
2022/08/04 07:25:57;;;;;;;3.43;2.47;;;;;;;23.24;52.00;97794.41;7589140;23;20208;-68
2022/08/04 07:29:15;;;;;;;3.63;2.53;;;;;;;23.64;49.26;97799.97;7615390;23;20215;-68
2022/08/04 07:32:21;;;;;;;3.17;2.67;;;;;;;23.93;46.65;97783.44;7615076;23;20208;-69
2022/08/04 07:35:27;;;;;;;3.50;2.60;;;;;;;24.47;47.13;97787.84;7589036;23;20295;-68
2022/08/04 07:38:49;;;;;;;2.50;2.30;;;;;;;24.97;46.38;97789.03;7615187;23;20685;-68
2022/08/04 07:41:54;;;;;;;3.83;2.70;;;;;;;25.26;43.28;97790.41;7615472;23;20212;-68
2022/08/04 07:44:57;;;;;;;2.40;2.20;;;;;;;25.67;43.77;97792.75;7615335;23;20216;-68
2022/08/04 07:48:02;;;;;;;2.63;2.17;;;;;;;25.88;43.25;97778.91;7588697;23;20705;-68
2022/08/04 07:51:07;;;;;;;3.88;2.38;;;;;;;26.32;43.52;97788.00;7615072;23;20267;-68
2022/08/04 07:54:10;;;;;;;4.05;2.45;;;;;;;26.50;42.02;97787.22;7615814;23;20279;-68
2022/08/04 07:57:12;;;;;;;3.13;2.42;;;;;;;26.52;41.88;97785.13;7589186;23;20190;-68
2022/08/04 08:00:21;;;;;;;2.30;2.10;;;;;;;27.04;41.09;97778.41;7614741;23;20181;-68
2022/08/04 08:03:25;;;;;;;3.38;2.17;;;;;;;27.49;40.87;97781.59;7615573;23;20736;-68
2022/08/04 08:06:28;;;;;;;2.53;2.05;;;;;;;27.64;39.37;97783.94;7613848;23;20215;-68
2022/08/04 08:09:35;;;;;;;4.43;1.95;;;;;;;27.90;39.33;97778.16;7615157;23;20240;-69
2022/08/04 08:12:37;;;;;;;2.60;2.08;;;;;;;28.08;39.11;97778.06;7614991;23;20267;-68
2022/08/04 08:15:53;;;;;;;2.30;2.10;;;;;;;28.35;37.53;97781.22;7614364;23;20205;-69
2022/08/04 08:18:55;;;;;;;4.03;2.10;;;;;;;28.49;35.35;97774.53;7614543;23;20211;-68
2022/08/04 08:22:07;;;;;;;2.35;1.80;;;;;;;28.86;33.30;97783.28;7616241;23;20609;-69
2022/08/04 08:25:10;;;;;;;3.53;2.00;;;;;;;29.32;34.47;97789.75;7615026;23;20212;-69
2022/08/04 08:28:14;;;;;;;1.92;1.80;;;;;;;29.45;34.24;97780.53;7614575;23;20208;-68
2022/08/04 08:31:17;;;;;;;3.00;2.20;;;;;;;29.68;35.06;97783.16;7615459;23;20673;-69
2022/08/04 08:34:19;;;;;;;2.20;2.00;;;;;;;29.97;34.28;97787.53;7588091;23;20373;-69
2022/08/04 08:37:37;;;;;;;2.22;2.10;;;;;;;29.94;32.60;97776.31;7613952;23;20669;-69
2022/08/04 08:40:45;;;;;;;2.97;2.20;;;;;;;29.98;31.37;97785.66;7589537;23;20316;-69
2022/08/04 08:44:10;;;;;;;2.40;2.20;;;;;;;30.19;33.58;97784.13;7613958;23;20213;-69
2022/08/04 08:48:06;;;;;;;2.28;2.00;;;;;;;30.52;32.89;97786.91;7552495;23;20212;-69
2022/08/04 08:51:51;;;;;;;2.38;2.10;;;;;;;30.81;31.21;97788.44;7614327;23;20220;-69
2022/08/04 08:55:18;;;;;;;2.80;2.20;;;;;;;30.93;29.57;97782.06;7590552;23;20213;-70
2022/08/04 08:58:31;;;;;;;3.17;1.83;;;;;;;31.13;29.76;97787.84;7614476;23;20271;-70
2022/08/04 09:01:57;;;;;;;2.33;1.80;;;;;;;30.77;29.38;97787.28;7614509;23;20597;-69
2022/08/04 09:05:04;;;;;;;4.43;2.10;;;;;;;31.16;29.14;97785.41;7614855;23;20209;-69
2022/08/04 09:08:31;;;;;;;2.22;1.90;;;;;;;31.41;28.79;97782.19;7588506;23;20729;-69
2022/08/04 09:12:04;;;;;;;2.10;1.65;;;;;;;31.30;27.92;97772.25;7588257;23;20251;-70
2022/08/04 09:15:14;;;;;;;1.92;1.80;;;;;;;31.55;29.75;97780.72;7614435;23;20215;-69
2022/08/04 09:18:33;;;;;;;2.97;2.30;;;;;;;31.56;29.09;97789.72;7614791;23;20247;-70
2022/08/04 09:21:41;;;;;;;4.10;1.90;;;;;;;31.74;27.90;97786.72;7614083;23;20215;-70
2022/08/04 09:25:01;;;;;;;3.15;2.25;;;;;;;32.17;27.63;97779.53;7587583;23;20235;-70
2022/08/04 09:28:25;;;;;;;2.70;2.20;;;;;;;32.18;26.76;97776.53;7614157;23;20569;-70
2022/08/04 09:31:53;;;;;;;4.35;1.88;;;;;;;32.55;28.47;97779.31;7596585;23;20209;-70
2022/08/04 09:35:36;;;;;;;4.95;1.88;;;;;;;32.73;25.27;97769.09;7613789;23;20217;-70
2022/08/04 09:38:50;;;;;;;1.70;1.60;;;;;;;32.74;26.34;97766.09;7588684;23;20212;-70
2022/08/04 09:42:15;;;;;;;3.63;3.33;;;;;;;32.50;26.22;97764.78;7614728;23;20212;-69
2022/08/04 09:45:32;;;;;;;4.43;2.72;;;;;;;33.05;27.84;97763.53;7613586;23;20196;-70
2022/08/04 09:49:13;;;;;;;5.13;2.40;;;;;;;33.06;26.14;97763.28;7614202;23;20533;-69
2022/08/04 09:52:39;;;;;;;2.28;1.80;;;;;;;33.25;24.76;97766.41;7614280;23;20208;-70
2022/08/04 09:55:45;;;;;;;3.70;2.10;;;;;;;33.45;25.67;97755.53;7614689;23;20212;-70
2022/08/04 09:59:06;;;;;;;2.10;1.90;;;;;;;33.52;24.96;97758.88;7613899;23;20619;-70
2022/08/04 10:02:12;;;;;;;3.25;1.73;;;;;;;33.33;25.01;97750.31;7614492;23;20552;-70
2022/08/04 10:05:20;;;;;;;2.72;1.77;;;;;;;33.65;24.55;97749.31;7614024;23;20209;-69
2022/08/04 10:08:53;;;;;;;3.90;1.98;;;;;;;33.30;23.85;97747.28;7588355;23;20216;-69
2022/08/04 10:12:16;;;;;;;3.10;1.52;;;;;;;33.68;24.91;97744.13;7614029;23;20221;-70
2022/08/04 10:15:32;;;;;;;1.60;1.50;;;;;;;33.98;22.91;97748.06;7613711;23;20216;-71
2022/08/04 10:19:01;;;;;;;2.35;1.58;;;;;;;33.82;22.34;97729.97;7615425;23;20268;-70
2022/08/04 10:22:27;;;;;;;1.75;1.50;;;;;;;34.39;22.32;97727.00;7589842;23;20219;-70
2022/08/04 10:25:57;;;;;;;3.03;2.30;;;;;;;34.78;22.64;97730.81;7612208;23;20213;-70
2022/08/04 10:29:17;;;;;;;3.45;1.45;;;;;;;34.91;22.21;97729.44;7590396;23;20209;-70
2022/08/04 10:32:28;;;;;;;3.35;1.63;;;;;;;35.40;21.70;97734.22;7613983;23;20275;-70
2022/08/04 10:35:40;;;;;;;1.33;1.23;;;;;;;35.20;21.15;97726.84;7612910;23;20703;-70
2022/08/04 10:38:55;;;;;;;3.20;1.45;;;;;;;35.52;21.92;97718.25;7617535;23;20217;-70
2022/08/04 10:42:10;;;;;;;1.60;1.50;;;;;;;35.86;21.21;97704.59;7616227;23;20653;-70
2022/08/04 10:45:25;;;;;;;2.45;1.63;;;;;;;36.15;20.89;97712.88;7616934;23;20220;-70
2022/08/04 10:48:39;;;;;;;2.63;1.50;;;;;;;35.62;21.43;97718.19;7616194;23;20258;-70
2022/08/04 10:51:49;;;;;;;2.00;1.67;;;;;;;35.57;21.41;97704.47;7617114;23;20217;-70
2022/08/04 10:55:10;;;;;;;1.60;1.50;;;;;;;35.37;21.00;97710.88;7615496;23;20220;-69
2022/08/04 10:58:19;;;;;;;2.35;1.55;;;;;;;35.75;21.64;97703.00;7616693;23;20712;-70
2022/08/04 11:01:36;;;;;;;2.35;1.50;;;;;;;35.71;20.94;97708.25;7565797;23;20212;-70
2022/08/04 11:05:24;;;;;;;1.92;1.70;;;;;;;35.68;21.82;97700.56;7616390;23;20592;-69
2022/08/04 11:08:36;;;;;;;3.08;1.58;;;;;;;35.85;20.77;97695.53;7622886;23;20215;-70
2022/08/04 11:11:40;;;;;;;3.08;1.75;;;;;;;35.71;21.70;97690.94;7616315;23;20208;-69
2022/08/04 11:15:11;;;;;;;1.90;1.30;;;;;;;36.01;21.63;97693.50;7615213;23;20290;-70
2022/08/04 11:18:24;;;;;;;2.20;1.40;;;;;;;35.28;20.57;97700.78;7615746;23;20202;-70
2022/08/04 11:21:34;;;;;;;2.75;1.85;;;;;;;34.61;22.82;97696.56;7616047;23;20263;-69
2022/08/04 11:24:49;;;;;;;1.98;1.60;;;;;;;35.33;21.39;97685.13;7615452;23;20216;-70
2022/08/04 11:28:18;;;;;;;2.35;1.58;;;;;;;35.57;21.08;97684.41;7616767;23;20227;-70
2022/08/04 11:31:27;;;;;;;1.65;1.50;;;;;;;35.85;21.19;97691.94;7617089;23;20215;-69
2022/08/04 11:34:29;;;;;;;1.60;1.50;;;;;;;36.16;20.62;97682.38;7615286;23;20235;-70
2022/08/04 11:37:44;;;;;;;1.75;1.65;;;;;;;35.94;20.97;97687.50;7616036;23;20228;-69
2022/08/04 11:40:50;;;;;;;2.15;1.80;;;;;;;35.66;21.21;97686.28;7616139;23;20677;-69
2022/08/04 11:44:05;;;;;;;2.03;1.48;;;;;;;36.09;21.53;97673.66;7615467;23;20253;-69
2022/08/04 11:47:37;;;;;;;2.80;1.60;;;;;;;36.82;20.75;97683.72;7617393;23;20213;-69
2022/08/04 11:50:47;;;;;;;2.40;1.60;;;;;;;36.09;20.41;97672.81;7615864;23;20208;-70
2022/08/04 11:53:55;;;;;;;1.70;1.60;;;;;;;35.65;21.89;97670.91;7615376;23;20291;-69
2022/08/04 11:56:58;;;;;;;2.38;1.58;;;;;;;36.39;21.13;97680.84;7616404;23;20212;-70
2022/08/04 12:00:03;;;;;;;2.85;1.67;;;;;;;36.48;20.76;97672.78;7590067;23;20230;-69
2022/08/04 12:03:38;;;;;;;2.30;1.50;;;;;;;37.04;20.20;97664.72;7614586;23;20598;-69
2022/08/04 12:06:51;;;;;;;1.98;1.55;;;;;;;37.08;21.00;97660.28;7614834;23;20307;-70
2022/08/04 12:10:13;;;;;;;1.80;1.52;;;;;;;36.48;21.61;97651.59;7615157;23;20239;-70
2022/08/04 12:13:31;;;;;;;2.17;1.50;;;;;;;37.26;21.53;97659.53;7615511;23;20605;-70
2022/08/04 12:17:01;;;;;;;1.85;1.70;;;;;;;37.20;20.23;97651.63;7615113;23;20548;-70
2022/08/04 12:20:08;;;;;;;1.65;1.55;;;;;;;37.67;21.05;97654.28;7614915;23;20345;-70
2022/08/04 12:23:39;;;;;;;2.25;1.40;;;;;;;38.10;19.14;97665.22;7616628;23;20216;-70
2022/08/04 12:26:51;;;;;;;4.35;2.10;;;;;;;36.84;20.31;97651.22;7614425;23;20209;-70
2022/08/04 12:29:54;;;;;;;1.90;1.80;;;;;;;37.23;20.10;97651.88;7615166;23;20212;-70
2022/08/04 12:33:26;;;;;;;1.50;1.40;;;;;;;37.44;20.01;97657.06;7614923;23;20279;-70
2022/08/04 12:37:27;;;;;;;2.92;1.77;;;;;;;36.98;20.11;97657.66;7615360;23;20665;-70
2022/08/04 12:40:45;;;;;;;3.38;1.67;;;;;;;37.49;20.02;97641.31;7581239;23;20252;-70
2022/08/04 12:43:49;;;;;;;4.15;1.70;;;;;;;38.38;20.54;97647.63;7615407;23;20213;-70
2022/08/04 12:46:52;;;;;;;2.65;1.40;;;;;;;38.22;20.26;97648.19;7613883;23;20212;-70
2022/08/04 12:49:58;;;;;;;3.63;1.80;;;;;;;37.58;19.68;97633.19;7615327;23;20212;-70
2022/08/04 12:53:11;;;;;;;1.80;1.70;;;;;;;37.13;19.89;97635.47;7614744;23;20212;-69
2022/08/04 12:56:27;;;;;;;2.88;1.60;;;;;;;37.54;20.72;97629.38;7588238;23;20223;-69
2022/08/04 12:59:40;;;;;;;2.05;1.52;;;;;;;37.89;19.63;97630.81;7614652;23;20542;-69
2022/08/04 13:02:45;;;;;;;2.95;1.50;;;;;;;37.62;19.76;97634.28;7615098;23;20236;-69
2022/08/04 13:05:54;;;;;;;2.00;1.60;;;;;;;37.22;20.66;97633.72;7614349;23;20217;-70
2022/08/04 13:09:04;;;;;;;1.70;1.60;;;;;;;37.44;20.09;97630.34;7588273;23;20818;-70
2022/08/04 13:12:25;;;;;;;2.00;1.90;;;;;;;37.66;19.97;97616.00;7616028;23;20204;-70
2022/08/04 13:15:33;;;;;;;1.77;1.55;;;;;;;37.77;19.58;97630.44;7620473;23;20212;-70
2022/08/04 13:18:49;;;;;;;2.85;1.55;;;;;;;37.92;19.21;97628.28;7587377;23;20246;-69
2022/08/04 13:21:53;;;;;;;1.90;1.77;;;;;;;38.07;19.56;97612.63;7615143;23;20255;-70
2022/08/04 13:25:04;;;;;;;1.77;1.50;;;;;;;38.63;19.51;97620.72;7614458;23;20208;-70
2022/08/04 13:28:28;;;;;;;2.78;1.70;;;;;;;38.99;18.52;97615.31;7615001;23;20215;-70
2022/08/04 13:31:31;;;;;;;2.88;1.73;;;;;;;38.77;18.06;97613.25;7614857;23;20209;-70
2022/08/04 13:34:41;;;;;;;1.67;1.58;;;;;;;38.45;18.95;97603.06;7614405;23;20216;-70
2022/08/04 13:37:53;;;;;;;2.47;1.35;;;;;;;38.27;18.97;97606.75;7614896;23;20213;-69
2022/08/04 13:41:01;;;;;;;2.03;1.80;;;;;;;38.28;19.15;97609.19;7614118;23;20572;-69
2022/08/04 13:44:10;;;;;;;2.15;1.60;;;;;;;38.44;18.95;97606.13;7614236;23;20208;-69
2022/08/04 13:47:30;;;;;;;2.90;1.80;;;;;;;39.00;18.51;97603.97;7588543;23;20220;-70
2022/08/04 13:50:34;;;;;;;2.08;1.55;;;;;;;39.75;17.35;97597.00;7614761;23;20216;-69
2022/08/04 13:53:40;;;;;;;2.70;1.58;;;;;;;39.78;17.75;97591.69;7614444;23;20656;-70
2022/08/04 13:56:47;;;;;;;1.48;1.38;;;;;;;39.51;18.00;97594.56;7615091;23;20212;-69
2022/08/04 13:59:57;;;;;;;4.32;1.50;;;;;;;38.37;18.76;97598.28;7613848;23;20271;-69
2022/08/04 14:03:33;;;;;;;1.83;1.63;;;;;;;38.59;18.03;97584.63;7593787;23;20541;-69
2022/08/04 14:07:05;;;;;;;1.85;1.60;;;;;;;40.23;17.46;97580.59;7609224;23;20216;-69
2022/08/04 14:10:19;;;;;;;1.70;1.60;;;;;;;41.42;15.83;97570.25;7613735;23;20216;-70
2022/08/04 14:13:32;;;;;;;3.13;1.65;;;;;;;42.64;15.55;97591.09;7617046;23;20212;-70
2022/08/04 14:17:04;;;;;;;1.80;1.70;;;;;;;44.18;13.44;97570.84;7618605;23;20216;-69
2022/08/04 14:20:06;;;;;;;1.83;1.73;;;;;;;45.75;12.15;97564.38;7616471;23;20216;-69
2022/08/04 14:23:08;;;;;;;2.03;1.70;;;;;;;47.68;11.04;97562.41;7615769;23;20228;-69
2022/08/04 14:26:20;;;;;;;3.63;1.85;;;;;;;49.43;11.03;97567.88;7616470;23;20216;-70
2022/08/04 14:29:37;;;;;;;1.92;1.83;;;;;;;49.52;10.31;97558.41;7614676;23;20513;-69
2022/08/04 14:33:04;;;;;;;2.40;1.50;;;;;;;49.11;10.33;97559.00;7616512;23;20216;-69
2022/08/04 14:36:26;;;;;;;1.65;1.55;;;;;;;49.84;9.72;97556.78;7614046;23;20542;-70
2022/08/04 14:39:41;;;;;;;3.95;1.70;;;;;;;50.40;9.20;97555.78;7617564;23;20267;-69
2022/08/04 14:43:05;;;;;;;2.40;1.58;;;;;;;50.48;9.93;97557.47;7617718;23;20573;-70
2022/08/04 14:46:14;;;;;;;3.65;1.50;;;;;;;50.23;9.47;97555.22;7617125;23;20740;-70
2022/08/04 14:49:16;;;;;;;1.60;1.50;;;;;;;50.94;8.59;97555.03;7590043;23;20212;-70
2022/08/04 14:52:23;;;;;;;2.40;1.20;;;;;;;50.30;9.17;97551.69;7616626;23;20219;-70
2022/08/04 14:55:26;;;;;;;1.80;1.67;;;;;;;49.67;9.55;97544.16;7590228;23;20530;-69
2022/08/04 14:58:31;;;;;;;1.50;1.38;;;;;;;50.41;9.69;97552.59;7615334;23;20395;-70
2022/08/04 15:01:41;;;;;;;1.95;1.55;;;;;;;49.06;9.61;97542.50;7590836;23;20296;-69
2022/08/04 15:04:45;;;;;;;2.90;1.63;;;;;;;48.95;10.29;97546.34;7615851;23;20524;-69
2022/08/04 15:07:48;;;;;;;1.52;1.45;;;;;;;49.43;10.02;97548.22;7615732;23;20212;-70
2022/08/04 15:10:51;;;;;;;2.47;1.40;;;;;;;48.97;10.24;97538.38;7616522;23;20227;-70
2022/08/04 15:13:55;;;;;;;2.45;1.70;;;;;;;49.15;10.41;97545.06;7615924;23;20653;-70
2022/08/04 15:16:57;;;;;;;2.70;1.77;;;;;;;49.92;9.63;97540.84;7614938;23;20216;-69
2022/08/04 15:20:01;;;;;;;1.70;1.45;;;;;;;49.50;9.83;97551.19;7614659;23;20673;-69
2022/08/04 15:23:05;;;;;;;2.65;1.60;;;;;;;49.75;9.61;97543.03;7614312;23;20209;-70
2022/08/04 15:26:15;;;;;;;3.05;1.83;;;;;;;50.16;9.34;97545.91;7616809;23;20267;-70